首页
METAR-TAF:

METAR-TAF

机场 :

Woodward, 奧克拉荷馬州, 美国

纬度: 36-26-12N, 经度: 099-31-16W, 海拔: 667米

METAR: 丢失

时间: 01:50 (06:50 UTC)

预报

该预报发布于1小时和30分钟前的05:20 UTC
预报有效从13日的 06点(UTC)到 14日的 06点(UTC)
风速12节,风向
能見度: 10公里
天空无云
从 13日的 1500点(UTC)
风速14节,风向,有时为22节阵风
能見度: 10公里
散云层高于15000英尺

TAF: KWWR 130520Z 1306/1406 18012KT P6SM SKC FM131500 19014G22KT P6SM SCT150

超过4000个机场的气象观测和天气预报(METAR&TAF报告)。

可查询的气象台以黄色和红色小点在地图上表示。

将鼠标移到小点上方,可查看气象台名称。

然后点击查看天气观测和预报。

如需切换地图:点击带黑十字的绿色按钮放大地图;点击带横线的绿色按钮缩小地图;或者点击绿色箭头查看邻近地区的地图。


METAR-TAF: